sensor_id;sensor_type;location;lat;lon;timestamp;pressure;altitude;pressure_sealevel;temperature;humidity
56006;BME280;41888;44.696;10.522;2023-11-19T00:01:32;100912.22;;;4.94;100.00
56006;BME280;41888;44.696;10.522;2023-11-19T00:03:58;100915.28;;;5.07;100.00
56006;BME280;41888;44.696;10.522;2023-11-19T00:06:24;100924.16;;;5.06;100.00
56006;BME280;41888;44.696;10.522;2023-11-19T00:08:51;100927.78;;;5.05;100.00
56006;BME280;41888;44.696;10.522;2023-11-19T00:11:17;100918.53;;;5.01;100.00
56006;BME280;41888;44.696;10.522;2023-11-19T00:13:43;100917.00;;;4.90;100.00
56006;BME280;41888;44.696;10.522;2023-11-19T00:16:10;100923.63;;;4.68;100.00
56006;BME280;41888;44.696;10.522;2023-11-19T00:18:36;100913.66;;;4.80;100.00
56006;BME280;41888;44.696;10.522;2023-11-19T00:21:03;100918.22;;;5.04;100.00
56006;BME280;41888;44.696;10.522;2023-11-19T00:23:29;100905.91;;;4.87;100.00
56006;BME280;41888;44.696;10.522;2023-11-19T00:25:55;100921.22;;;4.83;100.00
56006;BME280;41888;44.696;10.522;2023-11-19T00:28:21;100923.94;;;4.91;100.00
56006;BME280;41888;44.696;10.522;2023-11-19T00:30:48;100928.38;;;4.91;100.00
56006;BME280;41888;44.696;10.522;2023-11-19T00:33:14;100926.72;;;4.90;100.00
56006;BME280;41888;44.696;10.522;2023-11-19T00:35:40;100936.78;;;4.94;100.00
56006;BME280;41888;44.696;10.522;2023-11-19T00:38:06;100946.88;;;4.99;100.00
56006;BME280;41888;44.696;10.522;2023-11-19T00:40:32;100945.91;;;4.56;100.00
56006;BME280;41888;44.696;10.522;2023-11-19T00:42:59;100946.09;;;4.37;100.00
56006;BME280;41888;44.696;10.522;2023-11-19T00:45:25;100950.00;;;4.51;100.00
56006;BME280;41888;44.696;10.522;2023-11-19T00:47:51;100949.09;;;4.24;100.00
56006;BME280;41888;44.696;10.522;2023-11-19T00:50:17;100940.09;;;4.27;100.00
56006;BME280;41888;44.696;10.522;2023-11-19T00:52:43;100950.44;;;4.46;100.00
56006;BME280;41888;44.696;10.522;2023-11-19T00:55:10;100940.91;;;4.71;100.00
56006;BME280;41888;44.696;10.522;2023-11-19T00:57:37;100936.31;;;4.73;100.00
56006;BME280;41888;44.696;10.522;2023-11-19T01:00:05;100927.22;;;4.67;100.00
56006;BME280;41888;44.696;10.522;2023-11-19T01:02:50;100923.50;;;4.78;100.00
56006;BME280;41888;44.696;10.522;2023-11-19T01:05:16;100929.41;;;4.72;100.00
56006;BME280;41888;44.696;10.522;2023-11-19T01:07:42;100928.81;;;4.60;100.00
56006;BME280;41888;44.696;10.522;2023-11-19T01:10:09;100943.44;;;4.55;100.00
56006;BME280;41888;44.696;10.522;2023-11-19T01:12:35;100935.38;;;4.56;100.00
56006;BME280;41888;44.696;10.522;2023-11-19T01:15:02;100923.63;;;4.51;100.00
56006;BME280;41888;44.696;10.522;2023-11-19T01:17:28;100926.03;;;4.62;100.00
56006;BME280;41888;44.696;10.522;2023-11-19T01:19:57;100923.19;;;4.81;100.00
56006;BME280;41888;44.696;10.522;2023-11-19T01:22:23;100911.19;;;4.87;100.00
56006;BME280;41888;44.696;10.522;2023-11-19T01:24:49;100911.72;;;4.90;100.00
56006;BME280;41888;44.696;10.522;2023-11-19T01:27:15;100920.09;;;4.86;100.00
56006;BME280;41888;44.696;10.522;2023-11-19T01:29:42;100907.66;;;4.70;100.00
56006;BME280;41888;44.696;10.522;2023-11-19T01:32:09;100906.84;;;4.78;100.00
56006;BME280;41888;44.696;10.522;2023-11-19T01:34:35;100900.03;;;4.41;100.00
56006;BME280;41888;44.696;10.522;2023-11-19T01:37:01;100900.25;;;4.30;100.00
56006;BME280;41888;44.696;10.522;2023-11-19T01:39:28;100894.84;;;4.49;100.00
56006;BME280;41888;44.696;10.522;2023-11-19T01:41:54;100893.56;;;4.36;100.00
56006;BME280;41888;44.696;10.522;2023-11-19T01:44:20;100894.06;;;3.96;100.00
56006;BME280;41888;44.696;10.522;2023-11-19T01:46:47;100889.41;;;3.90;100.00
56006;BME280;41888;44.696;10.522;2023-11-19T01:49:15;100884.69;;;4.19;100.00
56006;BME280;41888;44.696;10.522;2023-11-19T01:51:42;100880.53;;;4.34;100.00
56006;BME280;41888;44.696;10.522;2023-11-19T01:54:08;100882.97;;;4.28;100.00
56006;BME280;41888;44.696;10.522;2023-11-19T01:56:36;100885.25;;;4.22;100.00
56006;BME280;41888;44.696;10.522;2023-11-19T01:59:03;100875.41;;;4.07;100.00
56006;BME280;41888;44.696;10.522;2023-11-19T02:01:30;100872.94;;;3.70;100.00
56006;BME280;41888;44.696;10.522;2023-11-19T02:03:58;100866.84;;;3.69;100.00
56006;BME280;41888;44.696;10.522;2023-11-19T02:06:26;100869.97;;;3.73;100.00
56006;BME280;41888;44.696;10.522;2023-11-19T02:08:53;100863.16;;;3.80;100.00
56006;BME280;41888;44.696;10.522;2023-11-19T02:11:20;100873.59;;;3.90;100.00
56006;BME280;41888;44.696;10.522;2023-11-19T02:13:46;100867.00;;;3.86;100.00
56006;BME280;41888;44.696;10.522;2023-11-19T02:16:12;100863.81;;;3.82;100.00
56006;BME280;41888;44.696;10.522;2023-11-19T02:18:38;100865.03;;;3.70;100.00
56006;BME280;41888;44.696;10.522;2023-11-19T02:21:05;100860.34;;;3.99;100.00
56006;BME280;41888;44.696;10.522;2023-11-19T02:23:31;100861.41;;;3.89;100.00
56006;BME280;41888;44.696;10.522;2023-11-19T02:28:48;100859.16;;;3.94;100.00
56006;BME280;41888;44.696;10.522;2023-11-19T02:31:14;100848.94;;;3.91;100.00
56006;BME280;41888;44.696;10.522;2023-11-19T02:33:41;100842.25;;;3.96;100.00
56006;BME280;41888;44.696;10.522;2023-11-19T02:36:08;100836.44;;;3.93;100.00
56006;BME280;41888;44.696;10.522;2023-11-19T02:38:35;100832.09;;;4.01;100.00
56006;BME280;41888;44.696;10.522;2023-11-19T02:41:05;100820.50;;;3.94;100.00
56006;BME280;41888;44.696;10.522;2023-11-19T02:43:36;100816.19;;;3.75;100.00
56006;BME280;41888;44.696;10.522;2023-11-19T02:46:04;100820.72;;;3.65;100.00
56006;BME280;41888;44.696;10.522;2023-11-19T02:48:34;100821.63;;;3.56;100.00
56006;BME280;41888;44.696;10.522;2023-11-19T02:51:04;100797.34;;;3.45;100.00
56006;BME280;41888;44.696;10.522;2023-11-19T02:53:31;100802.97;;;3.50;100.00
56006;BME280;41888;44.696;10.522;2023-11-19T02:55:57;100797.88;;;3.66;100.00
56006;BME280;41888;44.696;10.522;2023-11-19T02:58:43;100793.75;;;3.63;100.00
56006;BME280;41888;44.696;10.522;2023-11-19T03:01:11;100783.06;;;3.82;100.00
56006;BME280;41888;44.696;10.522;2023-11-19T03:03:49;100780.56;;;3.81;100.00
56006;BME280;41888;44.696;10.522;2023-11-19T03:06:20;100790.81;;;3.66;100.00
56006;BME280;41888;44.696;10.522;2023-11-19T03:08:47;100782.31;;;3.72;100.00
56006;BME280;41888;44.696;10.522;2023-11-19T03:11:14;100785.63;;;3.74;100.00
56006;BME280;41888;44.696;10.522;2023-11-19T03:13:40;100775.78;;;3.59;100.00
56006;BME280;41888;44.696;10.522;2023-11-19T03:16:07;100771.78;;;3.72;100.00
56006;BME280;41888;44.696;10.522;2023-11-19T03:18:34;100769.91;;;3.65;100.00
56006;BME280;41888;44.696;10.522;2023-11-19T03:21:00;100773.06;;;3.68;100.00
56006;BME280;41888;44.696;10.522;2023-11-19T03:23:26;100768.41;;;3.80;100.00
56006;BME280;41888;44.696;10.522;2023-11-19T03:25:55;100764.56;;;3.74;100.00
56006;BME280;41888;44.696;10.522;2023-11-19T03:28:23;100761.03;;;3.66;100.00
56006;BME280;41888;44.696;10.522;2023-11-19T03:30:49;100764.34;;;3.50;100.00
56006;BME280;41888;44.696;10.522;2023-11-19T03:33:15;100764.25;;;3.77;100.00
56006;BME280;41888;44.696;10.522;2023-11-19T03:35:41;100768.31;;;3.90;100.00
56006;BME280;41888;44.696;10.522;2023-11-19T03:38:07;100769.75;;;3.84;100.00
56006;BME280;41888;44.696;10.522;2023-11-19T03:40:34;100766.28;;;3.83;100.00
56006;BME280;41888;44.696;10.522;2023-11-19T03:43:00;100770.94;;;3.90;100.00
56006;BME280;41888;44.696;10.522;2023-11-19T03:45:26;100771.59;;;3.92;100.00
56006;BME280;41888;44.696;10.522;2023-11-19T03:47:52;100763.09;;;3.98;100.00
56006;BME280;41888;44.696;10.522;2023-11-19T03:50:18;100774.09;;;4.19;100.00
56006;BME280;41888;44.696;10.522;2023-11-19T03:52:46;100774.72;;;4.13;100.00
56006;BME280;41888;44.696;10.522;2023-11-19T03:55:13;100775.19;;;4.08;100.00
56006;BME280;41888;44.696;10.522;2023-11-19T03:57:39;100771.06;;;4.06;100.00
56006;BME280;41888;44.696;10.522;2023-11-19T04:00:06;100773.13;;;3.76;100.00
56006;BME280;41888;44.696;10.522;2023-11-19T04:02:39;100781.25;;;3.83;100.00
56006;BME280;41888;44.696;10.522;2023-11-19T04:05:05;100779.72;;;3.98;100.00
56006;BME280;41888;44.696;10.522;2023-11-19T04:07:32;100787.75;;;3.97;100.00
56006;BME280;41888;44.696;10.522;2023-11-19T04:09:59;100781.16;;;3.93;100.00
56006;BME280;41888;44.696;10.522;2023-11-19T04:12:25;100779.44;;;3.83;100.00
56006;BME280;41888;44.696;10.522;2023-11-19T04:14:51;100777.28;;;3.61;100.00
56006;BME280;41888;44.696;10.522;2023-11-19T04:17:18;100770.22;;;3.79;100.00
56006;BME280;41888;44.696;10.522;2023-11-19T04:19:44;100782.31;;;3.90;100.00
56006;BME280;41888;44.696;10.522;2023-11-19T04:22:10;100786.41;;;3.93;100.00
56006;BME280;41888;44.696;10.522;2023-11-19T04:24:36;100781.00;;;3.94;100.00
56006;BME280;41888;44.696;10.522;2023-11-19T04:27:03;100786.72;;;3.90;100.00
56006;BME280;41888;44.696;10.522;2023-11-19T04:29:30;100797.63;;;3.95;100.00
56006;BME280;41888;44.696;10.522;2023-11-19T04:31:57;100793.78;;;4.07;100.00
56006;BME280;41888;44.696;10.522;2023-11-19T04:34:23;100788.69;;;3.88;100.00
56006;BME280;41888;44.696;10.522;2023-11-19T04:36:49;100779.44;;;4.01;100.00
56006;BME280;41888;44.696;10.522;2023-11-19T04:39:16;100777.09;;;3.98;100.00
56006;BME280;41888;44.696;10.522;2023-11-19T04:41:50;100767.81;;;4.12;100.00
56006;BME280;41888;44.696;10.522;2023-11-19T04:44:20;100769.75;;;4.10;100.00
56006;BME280;41888;44.696;10.522;2023-11-19T04:46:46;100772.50;;;4.26;100.00
56006;BME280;41888;44.696;10.522;2023-11-19T04:49:13;100771.16;;;4.22;100.00
56006;BME280;41888;44.696;10.522;2023-11-19T04:51:45;100776.94;;;4.25;100.00
56006;BME280;41888;44.696;10.522;2023-11-19T04:54:13;100767.44;;;4.07;100.00
56006;BME280;41888;44.696;10.522;2023-11-19T04:56:39;100761.88;;;4.10;100.00
56006;BME280;41888;44.696;10.522;2023-11-19T04:59:07;100768.66;;;4.12;100.00
56006;BME280;41888;44.696;10.522;2023-11-19T05:01:35;100749.16;;;4.05;100.00
56006;BME280;41888;44.696;10.522;2023-11-19T05:04:01;100745.72;;;4.05;100.00
56006;BME280;41888;44.696;10.522;2023-11-19T05:06:28;100739.13;;;4.09;100.00
56006;BME280;41888;44.696;10.522;2023-11-19T05:08:56;100732.28;;;4.16;100.00
56006;BME280;41888;44.696;10.522;2023-11-19T05:11:22;100741.78;;;4.09;100.00
56006;BME280;41888;44.696;10.522;2023-11-19T05:13:48;100740.84;;;4.18;100.00
56006;BME280;41888;44.696;10.522;2023-11-19T05:16:16;100728.25;;;4.04;100.00
56006;BME280;41888;44.696;10.522;2023-11-19T05:18:43;100736.72;;;3.90;100.00
56006;BME280;41888;44.696;10.522;2023-11-19T05:21:10;100724.13;;;4.01;100.00
56006;BME280;41888;44.696;10.522;2023-11-19T05:23:36;100718.63;;;4.12;100.00
56006;BME280;41888;44.696;10.522;2023-11-19T05:26:03;100716.63;;;4.14;100.00
56006;BME280;41888;44.696;10.522;2023-11-19T05:28:29;100712.78;;;4.01;100.00
56006;BME280;41888;44.696;10.522;2023-11-19T05:30:55;100707.03;;;4.05;100.00
56006;BME280;41888;44.696;10.522;2023-11-19T05:33:22;100701.91;;;4.04;100.00
56006;BME280;41888;44.696;10.522;2023-11-19T05:35:48;100704.25;;;4.07;100.00
56006;BME280;41888;44.696;10.522;2023-11-19T05:38:14;100704.75;;;4.10;100.00
56006;BME280;41888;44.696;10.522;2023-11-19T05:40:41;100707.06;;;4.13;100.00
56006;BME280;41888;44.696;10.522;2023-11-19T05:43:08;100706.16;;;4.22;100.00
56006;BME280;41888;44.696;10.522;2023-11-19T05:45:34;100713.16;;;4.14;100.00
56006;BME280;41888;44.696;10.522;2023-11-19T05:48:00;100708.53;;;4.08;100.00
56006;BME280;41888;44.696;10.522;2023-11-19T05:50:26;100704.56;;;4.04;100.00
56006;BME280;41888;44.696;10.522;2023-11-19T05:52:52;100704.91;;;4.09;100.00
56006;BME280;41888;44.696;10.522;2023-11-19T05:55:19;100696.97;;;4.01;100.00
56006;BME280;41888;44.696;10.522;2023-11-19T05:57:46;100702.34;;;3.91;100.00
56006;BME280;41888;44.696;10.522;2023-11-19T06:00:12;100697.44;;;3.96;100.00
56006;BME280;41888;44.696;10.522;2023-11-19T06:02:39;100691.06;;;3.81;100.00
56006;BME280;41888;44.696;10.522;2023-11-19T06:05:06;100691.44;;;3.60;100.00
56006;BME280;41888;44.696;10.522;2023-11-19T06:07:35;100694.88;;;3.61;100.00
56006;BME280;41888;44.696;10.522;2023-11-19T06:10:02;100687.16;;;3.59;100.00
56006;BME280;41888;44.696;10.522;2023-11-19T06:12:31;100675.19;;;3.65;100.00
56006;BME280;41888;44.696;10.522;2023-11-19T06:14:58;100680.97;;;3.68;100.00
56006;BME280;41888;44.696;10.522;2023-11-19T06:17:24;100681.44;;;3.64;100.00
56006;BME280;41888;44.696;10.522;2023-11-19T06:19:50;100672.03;;;3.61;100.00
56006;BME280;41888;44.696;10.522;2023-11-19T06:22:16;100691.66;;;3.67;100.00
56006;BME280;41888;44.696;10.522;2023-11-19T06:24:43;100687.06;;;3.69;100.00
56006;BME280;41888;44.696;10.522;2023-11-19T06:27:09;100701.88;;;3.70;100.00
56006;BME280;41888;44.696;10.522;2023-11-19T06:29:35;100702.16;;;3.67;100.00
56006;BME280;41888;44.696;10.522;2023-11-19T06:32:02;100709.00;;;3.77;100.00
56006;BME280;41888;44.696;10.522;2023-11-19T06:34:28;100711.59;;;3.95;100.00
56006;BME280;41888;44.696;10.522;2023-11-19T06:36:54;100711.00;;;4.09;100.00
56006;BME280;41888;44.696;10.522;2023-11-19T06:39:20;100709.53;;;4.07;100.00
56006;BME280;41888;44.696;10.522;2023-11-19T06:41:47;100713.38;;;4.20;100.00
56006;BME280;41888;44.696;10.522;2023-11-19T06:44:13;100705.44;;;4.12;100.00
56006;BME280;41888;44.696;10.522;2023-11-19T06:46:40;100707.84;;;4.32;100.00
56006;BME280;41888;44.696;10.522;2023-11-19T06:49:06;100717.69;;;4.30;100.00
56006;BME280;41888;44.696;10.522;2023-11-19T06:51:34;100719.03;;;4.34;100.00
56006;BME280;41888;44.696;10.522;2023-11-19T06:54:00;100716.72;;;4.31;100.00
56006;BME280;41888;44.696;10.522;2023-11-19T06:56:27;100715.25;;;4.28;100.00
56006;BME280;41888;44.696;10.522;2023-11-19T06:58:53;100720.69;;;4.35;100.00
56006;BME280;41888;44.696;10.522;2023-11-19T07:01:20;100716.72;;;4.31;100.00
56006;BME280;41888;44.696;10.522;2023-11-19T07:03:47;100708.88;;;4.47;100.00
56006;BME280;41888;44.696;10.522;2023-11-19T07:06:13;100711.72;;;4.53;100.00
56006;BME280;41888;44.696;10.522;2023-11-19T07:08:41;100713.19;;;4.56;100.00
56006;BME280;41888;44.696;10.522;2023-11-19T07:11:11;100719.63;;;4.53;100.00
56006;BME280;41888;44.696;10.522;2023-11-19T07:13:38;100730.53;;;4.66;100.00
56006;BME280;41888;44.696;10.522;2023-11-19T07:16:04;100727.25;;;4.64;100.00
56006;BME280;41888;44.696;10.522;2023-11-19T07:18:30;100725.63;;;4.72;100.00
56006;BME280;41888;44.696;10.522;2023-11-19T07:20:57;100733.91;;;4.93;100.00
56006;BME280;41888;44.696;10.522;2023-11-19T07:23:25;100734.44;;;4.96;100.00
56006;BME280;41888;44.696;10.522;2023-11-19T07:25:52;100739.72;;;5.04;100.00
56006;BME280;41888;44.696;10.522;2023-11-19T07:28:19;100732.47;;;5.15;100.00
56006;BME280;41888;44.696;10.522;2023-11-19T07:30:45;100743.22;;;5.21;100.00
56006;BME280;41888;44.696;10.522;2023-11-19T07:33:12;100750.31;;;5.29;100.00
56006;BME280;41888;44.696;10.522;2023-11-19T07:35:39;100742.56;;;5.35;100.00
56006;BME280;41888;44.696;10.522;2023-11-19T07:38:08;100738.63;;;5.47;100.00
56006;BME280;41888;44.696;10.522;2023-11-19T07:40:34;100748.19;;;5.57;100.00
56006;BME280;41888;44.696;10.522;2023-11-19T07:43:00;100755.16;;;5.66;100.00
56006;BME280;41888;44.696;10.522;2023-11-19T07:45:26;100761.41;;;5.81;100.00
56006;BME280;41888;44.696;10.522;2023-11-19T07:47:53;100754.00;;;5.92;100.00
56006;BME280;41888;44.696;10.522;2023-11-19T07:50:20;100747.38;;;6.13;100.00
56006;BME280;41888;44.696;10.522;2023-11-19T07:52:46;100757.56;;;6.32;100.00
56006;BME280;41888;44.696;10.522;2023-11-19T07:55:12;100761.81;;;6.49;100.00
56006;BME280;41888;44.696;10.522;2023-11-19T07:57:39;100764.09;;;6.60;100.00
56006;BME280;41888;44.696;10.522;2023-11-19T08:00:05;100768.66;;;6.74;100.00
56006;BME280;41888;44.696;10.522;2023-11-19T08:02:32;100771.88;;;6.93;100.00
56006;BME280;41888;44.696;10.522;2023-11-19T08:04:59;100769.34;;;7.07;100.00
56006;BME280;41888;44.696;10.522;2023-11-19T08:07:25;100770.53;;;7.28;99.54
56006;BME280;41888;44.696;10.522;2023-11-19T08:09:51;100776.72;;;7.43;99.73
56006;BME280;41888;44.696;10.522;2023-11-19T08:12:17;100785.00;;;7.62;98.41
56006;BME280;41888;44.696;10.522;2023-11-19T08:14:43;100783.31;;;8.59;94.50
56006;BME280;41888;44.696;10.522;2023-11-19T08:17:12;100786.06;;;9.73;81.13
56006;BME280;41888;44.696;10.522;2023-11-19T08:19:38;100788.47;;;9.68;77.85
56006;BME280;41888;44.696;10.522;2023-11-19T08:22:04;100789.16;;;9.35;78.82
56006;BME280;41888;44.696;10.522;2023-11-19T08:24:31;100793.50;;;9.21;79.95
56006;BME280;41888;44.696;10.522;2023-11-19T08:26:57;100787.56;;;9.04;80.00
56006;BME280;41888;44.696;10.522;2023-11-19T08:29:23;100790.66;;;9.22;77.83
56006;BME280;41888;44.696;10.522;2023-11-19T08:31:49;100784.28;;;9.38;76.79
56006;BME280;41888;44.696;10.522;2023-11-19T08:34:15;100786.56;;;9.41;77.00
56006;BME280;41888;44.696;10.522;2023-11-19T08:36:41;100790.63;;;9.58;76.38
56006;BME280;41888;44.696;10.522;2023-11-19T08:39:08;100797.28;;;9.69;75.41
56006;BME280;41888;44.696;10.522;2023-11-19T08:41:34;100788.72;;;9.73;75.96
56006;BME280;41888;44.696;10.522;2023-11-19T08:44:00;100782.09;;;10.12;75.07
56006;BME280;41888;44.696;10.522;2023-11-19T08:46:27;100780.94;;;10.77;70.29
56006;BME280;41888;44.696;10.522;2023-11-19T08:48:53;100789.03;;;13.14;59.91
56006;BME280;41888;44.696;10.522;2023-11-19T08:51:23;100789.97;;;15.47;50.84
56006;BME280;41888;44.696;10.522;2023-11-19T08:53:50;100766.00;;;16.75;45.99
56006;BME280;41888;44.696;10.522;2023-11-19T08:56:17;100782.50;;;18.47;40.84
56006;BME280;41888;44.696;10.522;2023-11-19T08:58:43;100799.38;;;20.00;36.89
56006;BME280;41888;44.696;10.522;2023-11-19T09:01:09;100806.34;;;20.28;35.72
56006;BME280;41888;44.696;10.522;2023-11-19T09:03:35;100796.44;;;20.86;34.52
56006;BME280;41888;44.696;10.522;2023-11-19T09:06:03;100788.50;;;20.27;35.01
56006;BME280;41888;44.696;10.522;2023-11-19T09:08:29;100792.03;;;21.37;33.20
56006;BME280;41888;44.696;10.522;2023-11-19T09:10:55;100804.31;;;21.90;32.64
56006;BME280;41888;44.696;10.522;2023-11-19T09:13:21;100807.78;;;22.82;31.10
56006;BME280;41888;44.696;10.522;2023-11-19T09:15:49;100814.63;;;22.28;31.61
56006;BME280;41888;44.696;10.522;2023-11-19T09:18:15;100822.66;;;21.53;31.92
56006;BME280;41888;44.696;10.522;2023-11-19T09:20:41;100831.38;;;21.65;32.56
56006;BME280;41888;44.696;10.522;2023-11-19T09:23:07;100821.16;;;21.97;32.88
56006;BME280;41888;44.696;10.522;2023-11-19T09:25:34;100825.69;;;21.61;32.81
56006;BME280;41888;44.696;10.522;2023-11-19T09:28:01;100825.38;;;21.47;33.13
56006;BME280;41888;44.696;10.522;2023-11-19T09:30:27;100819.25;;;21.10;33.39
56006;BME280;41888;44.696;10.522;2023-11-19T09:32:53;100818.97;;;22.35;31.94
56006;BME280;41888;44.696;10.522;2023-11-19T09:35:20;100821.78;;;23.09;30.18
56006;BME280;41888;44.696;10.522;2023-11-19T09:37:46;100812.16;;;22.42;30.94
56006;BME280;41888;44.696;10.522;2023-11-19T09:40:12;100818.28;;;22.98;30.55
56006;BME280;41888;44.696;10.522;2023-11-19T09:42:48;100819.19;;;22.73;31.02
56006;BME280;41888;44.696;10.522;2023-11-19T09:45:15;100814.38;;;22.15;32.53
56006;BME280;41888;44.696;10.522;2023-11-19T09:47:46;100813.47;;;22.75;31.35
56006;BME280;41888;44.696;10.522;2023-11-19T09:50:17;100813.00;;;22.38;31.73
56006;BME280;41888;44.696;10.522;2023-11-19T09:52:45;100804.31;;;22.41;32.00
56006;BME280;41888;44.696;10.522;2023-11-19T09:55:11;100809.59;;;22.96;31.23
56006;BME280;41888;44.696;10.522;2023-11-19T09:57:39;100811.50;;;23.01;31.07
56006;BME280;41888;44.696;10.522;2023-11-19T10:00:07;100812.16;;;23.37;30.31
56006;BME280;41888;44.696;10.522;2023-11-19T10:02:34;100814.72;;;23.67;30.14
56006;BME280;41888;44.696;10.522;2023-11-19T10:05:06;100817.78;;;23.94;29.63
56006;BME280;41888;44.696;10.522;2023-11-19T10:07:33;100805.88;;;23.85;29.54
56006;BME280;41888;44.696;10.522;2023-11-19T10:10:03;100809.75;;;23.74;29.58
56006;BME280;41888;44.696;10.522;2023-11-19T10:12:33;100807.53;;;23.32;29.72
56006;BME280;41888;44.696;10.522;2023-11-19T10:15:00;100800.28;;;23.17;30.51
56006;BME280;41888;44.696;10.522;2023-11-19T10:17:32;100814.34;;;23.30;30.89
56006;BME280;41888;44.696;10.522;2023-11-19T10:19:59;100815.22;;;23.20;30.96
56006;BME280;41888;44.696;10.522;2023-11-19T10:22:26;100810.06;;;23.19;30.71
56006;BME280;41888;44.696;10.522;2023-11-19T10:24:53;100807.41;;;23.03;31.37
56006;BME280;41888;44.696;10.522;2023-11-19T10:27:19;100807.16;;;23.54;30.57
56006;BME280;41888;44.696;10.522;2023-11-19T10:29:46;100807.59;;;23.71;29.49
56006;BME280;41888;44.696;10.522;2023-11-19T10:32:13;100807.91;;;23.15;29.90
56006;BME280;41888;44.696;10.522;2023-11-19T10:34:41;100803.91;;;23.91;29.30
56006;BME280;41888;44.696;10.522;2023-11-19T10:37:08;100790.59;;;23.01;30.79
56006;BME280;41888;44.696;10.522;2023-11-19T10:39:54;100803.22;;;22.37;31.54
56006;BME280;41888;44.696;10.522;2023-11-19T10:42:20;100788.56;;;22.63;31.88
56006;BME280;41888;44.696;10.522;2023-11-19T10:44:47;100766.88;;;22.48;31.77
56006;BME280;41888;44.696;10.522;2023-11-19T10:47:15;100777.34;;;22.90;31.45
56006;BME280;41888;44.696;10.522;2023-11-19T10:49:44;100778.84;;;22.26;32.69
56006;BME280;41888;44.696;10.522;2023-11-19T10:52:12;100771.19;;;22.54;32.97
56006;BME280;41888;44.696;10.522;2023-11-19T10:54:43;100771.16;;;22.74;31.99
56006;BME280;41888;44.696;10.522;2023-11-19T10:57:13;100759.50;;;22.79;32.84
56006;BME280;41888;44.696;10.522;2023-11-19T10:59:41;100747.00;;;22.83;32.16
56006;BME280;41888;44.696;10.522;2023-11-19T11:02:10;100744.09;;;22.49;32.28
56006;BME280;41888;44.696;10.522;2023-11-19T11:04:40;100735.66;;;22.60;31.29
56006;BME280;41888;44.696;10.522;2023-11-19T11:07:09;100749.88;;;21.71;32.16
56006;BME280;41888;44.696;10.522;2023-11-19T11:09:36;100728.34;;;23.20;31.47
56006;BME280;41888;44.696;10.522;2023-11-19T11:12:02;100722.16;;;22.45;31.64
56006;BME280;41888;44.696;10.522;2023-11-19T11:14:30;100730.09;;;22.06;32.22
56006;BME280;41888;44.696;10.522;2023-11-19T11:16:56;100707.19;;;22.53;31.59
56006;BME280;41888;44.696;10.522;2023-11-19T11:19:24;100731.59;;;22.58;31.87
56006;BME280;41888;44.696;10.522;2023-11-19T11:21:55;100726.16;;;22.63;31.63
56006;BME280;41888;44.696;10.522;2023-11-19T11:32:40;100706.28;;;21.78;31.90
56006;BME280;41888;44.696;10.522;2023-11-19T11:38:09;100706.78;;;22.05;32.05
56006;BME280;41888;44.696;10.522;2023-11-19T11:40:36;100701.94;;;21.77;32.46
56006;BME280;41888;44.696;10.522;2023-11-19T11:43:03;100696.75;;;22.06;32.54
56006;BME280;41888;44.696;10.522;2023-11-19T11:45:38;100678.63;;;22.01;32.39
56006;BME280;41888;44.696;10.522;2023-11-19T11:50:31;100667.16;;;20.73;34.40
56006;BME280;41888;44.696;10.522;2023-11-19T11:58:19;100655.66;;;19.93;35.66
56006;BME280;41888;44.696;10.522;2023-11-19T12:00:48;100652.28;;;20.80;34.92
56006;BME280;41888;44.696;10.522;2023-11-19T12:03:15;100652.03;;;20.92;34.11
56006;BME280;41888;44.696;10.522;2023-11-19T12:05:42;100650.22;;;21.23;33.45
56006;BME280;41888;44.696;10.522;2023-11-19T12:08:11;100639.06;;;22.00;33.04
56006;BME280;41888;44.696;10.522;2023-11-19T12:10:54;100645.03;;;22.07;32.54
56006;BME280;41888;44.696;10.522;2023-11-19T12:13:24;100643.72;;;21.24;32.30
56006;BME280;41888;44.696;10.522;2023-11-19T12:18:30;100638.25;;;20.88;33.25
56006;BME280;41888;44.696;10.522;2023-11-19T12:20:58;100627.66;;;20.77;33.45
56006;BME280;41888;44.696;10.522;2023-11-19T12:23:31;100626.06;;;20.13;34.57
56006;BME280;41888;44.696;10.522;2023-11-19T12:25:58;100630.16;;;20.26;35.10
56006;BME280;41888;44.696;10.522;2023-11-19T12:28:25;100627.03;;;20.44;35.25
56006;BME280;41888;44.696;10.522;2023-11-19T12:30:53;100627.47;;;21.54;33.42
56006;BME280;41888;44.696;10.522;2023-11-19T12:33:20;100624.16;;;20.76;35.14
56006;BME280;41888;44.696;10.522;2023-11-19T12:35:47;100622.06;;;21.19;34.95
56006;BME280;41888;44.696;10.522;2023-11-19T12:38:21;100607.13;;;20.86;35.19
56006;BME280;41888;44.696;10.522;2023-11-19T12:40:48;100613.25;;;20.46;36.52
56006;BME280;41888;44.696;10.522;2023-11-19T12:43:28;100602.06;;;19.75;37.62
56006;BME280;41888;44.696;10.522;2023-11-19T12:45:54;100600.59;;;19.57;38.63
56006;BME280;41888;44.696;10.522;2023-11-19T12:48:20;100596.31;;;19.24;38.89
56006;BME280;41888;44.696;10.522;2023-11-19T12:50:57;100602.41;;;19.47;38.91
56006;BME280;41888;44.696;10.522;2023-11-19T12:53:25;100596.06;;;18.72;40.44
56006;BME280;41888;44.696;10.522;2023-11-19T12:55:52;100582.59;;;18.24;42.33
56006;BME280;41888;44.696;10.522;2023-11-19T12:58:35;100582.63;;;17.52;43.54
56006;BME280;41888;44.696;10.522;2023-11-19T13:01:02;100568.44;;;17.56;44.54
56006;BME280;41888;44.696;10.522;2023-11-19T13:03:36;100572.22;;;17.05;45.84
56006;BME280;41888;44.696;10.522;2023-11-19T13:06:08;100563.00;;;16.56;47.11